UKOO Airport Information

Runway Information
Runway 07 Length 1815 ft width 197 ft
Elevation 0 ft Threshold 0 ft Heading 75
Runway 25 Length 1815 ft Width 197 ft
Elevation 0 ft Threshold 0 ft Heading 255
Runway 16 Length 9183 ft width 184 ft
Elevation 172 ft Threshold 0 ft Heading 163
Runway 34 Length 9183 ft Width 184 ft
Elevation 165 ft Threshold 0 ft Heading 343
Runway 18 Length 2950 ft width 190 ft
Elevation 0 ft Threshold 0 ft Heading 182
Runway 36 Length 2950 ft Width 190 ft
Elevation 0 ft Threshold 0 ft Heading 2
Airport Frequencies
Type APP Name RADAR Frequency 120.9 MHZ
Type ATIS Name ATIS Frequency 124.8 MHZ
Type GND Name GND Frequency 121.8 MHZ
Type TWR Name TWR Frequency 125.5 MHZ
Airport Navaids
Type VOR-DME Name Odesa Frequency 113950 KHZ
Airport Weather Information & NOTAM
ADDS - METARS form results

(1704 UTC 17 August 2019)
Data provider http://aviationweather.gov/metar/data/
 
METAR text: UKOO 171700Z 33005MPS CAVOK 23/08 Q1012 R34/090060 NOSIG
Conditions at: UKOO (ODESSA/TSENTRALN, UA) observed 1700 UTC 17 August 2019
Temperature: 23.0°C (73°F)
Dewpoint: 8.0°C (46°F) [RH = 38%]
Pressure (altimeter): 29.88 inches Hg (1012.0 mb)
Winds: from the NNW (330 degrees) at 12 MPH (10 knots; 5.1 m/s)
Visibility: 6 or more miles (10+ km)
Ceiling: ceiling and visibility are OK
Clouds: unknown
Weather: no significant weather observed at this time

METAR text: UKOO 171630Z 33004MPS CAVOK 23/08 Q1012 R34/090060 NOSIG
Conditions at: UKOO (ODESSA/TSENTRALN, UA) observed 1630 UTC 17 August 2019
Temperature: 23.0°C (73°F)
Dewpoint: 8.0°C (46°F) [RH = 38%]
Pressure (altimeter): 29.88 inches Hg (1012.0 mb)
Winds: from the NNW (330 degrees) at 9 MPH (8 knots; 4.1 m/s)
Visibility: 6 or more miles (10+ km)
Ceiling: ceiling and visibility are OK
Clouds: unknown
Weather: no significant weather observed at this time

Forecast for: COR
Text: TAF COR UKOO 171133Z 1712/1812 34007G14MPS 6000 SCT020 SCT025CB TX27/1812Z TN15/1802Z
Forecast period: 1200 to 1800 UTC 17 August 2019
Forecast type: FROM: standard forecast or significant change
Winds: from the NNW (340 degrees) at 16 MPH (14 knots; 7.2 m/s)
gusting to 31 MPH (27 knots; 13.9 m/s)
Visibility: 4 miles (6 km)
Ceiling: at least 12,000 feet AGL
Clouds: scattered clouds at 2000 feet AGL
scattered clouds at 2500 feet AGL
Weather: no significant weather forecast for this period
Text: BECMG 1718/1719 34003MPS
Forecast period: 1800 UTC 17 August 2019 to 1200 UTC 18 August 2019
Forecast type: BECOMING: Conditions expected to become as follows by 1900 UTC 17 August 2019
Winds: from the NNW (340 degrees) at 7 MPH (6 knots; 3.1 m/s)
Visibility: 4 miles (6 km)
Ceiling: at least 12,000 feet AGL
Clouds: scattered clouds at 2000 feet AGL
scattered clouds at 2500 feet AGL
Weather: no significant weather forecast for this period